createdAt,value
2018-08-24T00:03:04.293Z,20.42
2018-08-24T00:06:09.201Z,20.32
2018-08-24T00:09:15.163Z,20.31
2018-08-24T00:12:20.284Z,20.29
2018-08-24T00:15:25.208Z,20.29
2018-08-24T00:18:30.108Z,20.33
2018-08-24T00:21:35.004Z,20.30
2018-08-24T00:24:39.924Z,20.29
2018-08-24T00:27:44.857Z,20.37
2018-08-24T00:30:49.751Z,20.43
2018-08-24T00:33:54.649Z,20.42
2018-08-24T00:36:59.556Z,20.44
2018-08-24T00:40:04.504Z,20.53
2018-08-24T00:43:09.420Z,20.50
2018-08-24T00:46:17.540Z,20.47
2018-08-24T00:49:22.449Z,20.43
2018-08-24T00:52:27.349Z,20.23
2018-08-24T00:55:32.257Z,20.24
2018-08-24T00:58:37.909Z,20.37
2018-08-24T01:01:43.153Z,20.46
2018-08-24T01:04:48.101Z,20.36
2018-08-24T01:07:58.764Z,20.33
2018-08-24T01:11:03.892Z,20.36
2018-08-24T01:14:08.971Z,20.39
2018-08-24T01:17:19.679Z,20.38
2018-08-24T01:20:29.590Z,20.42
2018-08-24T01:23:34.548Z,20.42
2018-08-24T01:26:39.541Z,20.37
2018-08-24T01:29:44.509Z,20.39
2018-08-24T01:32:49.461Z,20.38
2018-08-24T01:35:54.864Z,20.32
2018-08-24T01:39:00.276Z,20.30
2018-08-24T01:42:05.236Z,20.30
2018-08-24T01:45:10.169Z,20.30
2018-08-24T01:48:15.100Z,20.27
2018-08-24T01:51:20.005Z,20.24
2018-08-24T01:54:24.916Z,20.19
2018-08-24T01:57:29.812Z,20.14
2018-08-24T02:00:35.001Z,20.18
2018-08-24T02:03:39.911Z,20.16
2018-08-24T02:06:44.812Z,20.10
2018-08-24T02:09:49.728Z,20.09
2018-08-24T02:13:00.501Z,20.02
2018-08-24T02:16:05.744Z,20.03
2018-08-24T02:19:13.076Z,20.00
2018-08-24T02:22:18.507Z,19.99
2018-08-24T02:25:24.057Z,19.93
2018-08-24T02:28:28.993Z,19.86
2018-08-24T02:31:39.662Z,19.82
2018-08-24T02:34:44.560Z,19.82
2018-08-24T02:37:50.537Z,19.78
2018-08-24T02:40:55.449Z,19.76
2018-08-24T02:44:00.353Z,19.64
2018-08-24T02:47:05.270Z,19.62
2018-08-24T02:50:10.181Z,19.67
2018-08-24T02:53:15.089Z,19.67
2018-08-24T02:56:20.025Z,19.69
2018-08-24T02:59:24.929Z,19.72
2018-08-24T03:02:29.880Z,19.66
2018-08-24T03:05:35.063Z,19.61
2018-08-24T03:08:39.880Z,19.56
2018-08-24T03:11:44.813Z,19.55
2018-08-24T03:14:49.870Z,19.53
2018-08-24T03:17:54.921Z,19.48
2018-08-24T03:20:59.841Z,19.47
2018-08-24T03:24:04.796Z,19.43
2018-08-24T03:27:09.753Z,19.38
2018-08-24T03:30:14.717Z,19.38
2018-08-24T03:33:19.625Z,19.31
2018-08-24T03:36:24.565Z,19.27
2018-08-24T03:39:29.505Z,19.21
2018-08-24T03:42:34.452Z,19.20
2018-08-24T03:45:39.435Z,19.16
2018-08-24T03:48:44.336Z,19.08
2018-08-24T03:51:49.264Z,19.11
2018-08-24T03:54:54.450Z,19.09
2018-08-24T03:57:59.432Z,19.07
2018-08-24T04:01:04.497Z,18.99
2018-08-24T04:04:09.443Z,18.95
2018-08-24T04:07:14.369Z,18.76
2018-08-24T04:10:19.289Z,18.69
2018-08-24T04:13:24.224Z,18.67
2018-08-24T04:16:33.746Z,18.70
2018-08-24T04:19:38.728Z,18.75
2018-08-24T04:22:43.632Z,18.68
2018-08-24T04:25:48.685Z,18.70
2018-08-24T04:28:53.520Z,18.69
2018-08-24T04:31:58.437Z,18.69
2018-08-24T04:35:03.874Z,18.74
2018-08-24T04:38:08.753Z,18.61
2018-08-24T04:41:13.689Z,18.59
2018-08-24T04:44:18.624Z,18.58
2018-08-24T04:47:23.589Z,18.63
2018-08-24T04:50:28.508Z,18.62
2018-08-24T04:53:33.424Z,18.61
2018-08-24T04:56:38.352Z,18.65
2018-08-24T04:59:43.285Z,18.69
2018-08-24T05:02:48.202Z,18.68
2018-08-24T05:05:53.369Z,18.71
2018-08-24T05:08:58.276Z,18.67
2018-08-24T05:12:03.441Z,18.68
2018-08-24T05:15:08.374Z,18.65
2018-08-24T05:18:13.345Z,18.54
2018-08-24T05:21:18.311Z,18.63
2018-08-24T05:24:23.263Z,18.62
2018-08-24T05:27:28.197Z,18.71
2018-08-24T05:30:33.178Z,18.76
2018-08-24T05:33:38.189Z,18.85
2018-08-24T05:36:43.100Z,18.89
2018-08-24T05:39:48.045Z,18.96
2018-08-24T05:42:52.973Z,18.99
2018-08-24T05:45:57.902Z,19.02
2018-08-24T05:49:03.046Z,19.04
2018-08-24T05:52:08.067Z,19.10
2018-08-24T05:55:13.013Z,19.13
2018-08-24T05:58:18.073Z,19.20
2018-08-24T06:01:24.437Z,19.41
2018-08-24T06:04:29.390Z,19.69
2018-08-24T06:07:34.336Z,19.71
2018-08-24T06:10:39.280Z,19.63
2018-08-24T06:13:44.660Z,19.90
2018-08-24T06:16:56.121Z,19.95
2018-08-24T06:20:01.126Z,20.04
2018-08-24T06:23:06.116Z,20.04
2018-08-24T06:26:11.060Z,20.33
2018-08-24T06:29:16.029Z,20.75
2018-08-24T06:32:20.976Z,21.04
2018-08-24T06:35:25.919Z,21.41
2018-08-24T06:38:30.861Z,21.61
2018-08-24T06:41:36.191Z,21.87
2018-08-24T06:44:41.160Z,21.97
2018-08-24T06:47:46.186Z,21.84
2018-08-24T06:50:51.033Z,22.03
2018-08-24T06:53:56.087Z,22.09
2018-08-24T06:57:00.933Z,22.05
2018-08-24T07:00:06.833Z,21.64
2018-08-24T07:03:11.814Z,21.55
2018-08-24T07:06:16.701Z,21.48
2018-08-24T07:09:21.628Z,21.50
2018-08-24T07:12:26.585Z,21.37
2018-08-24T07:15:31.485Z,21.27
2018-08-24T07:18:36.407Z,21.08
2018-08-24T07:21:41.332Z,20.92
2018-08-24T07:24:46.306Z,20.69
2018-08-24T07:27:51.397Z,20.66
2018-08-24T07:30:56.316Z,20.67
2018-08-24T07:34:01.387Z,20.81
2018-08-24T07:37:06.325Z,20.78
2018-08-24T07:40:11.524Z,20.85
2018-08-24T07:43:17.024Z,20.67
2018-08-24T07:46:21.962Z,20.27
2018-08-24T07:49:26.909Z,20.22
2018-08-24T07:52:31.818Z,20.27
2018-08-24T07:55:36.849Z,20.17
2018-08-24T07:58:41.778Z,20.08
2018-08-24T08:01:46.757Z,20.13
2018-08-24T08:04:51.704Z,20.07
2018-08-24T08:07:56.628Z,20.05
2018-08-24T08:11:01.749Z,19.82
2018-08-24T08:14:06.700Z,19.65
2018-08-24T08:17:13.409Z,19.59
2018-08-24T08:20:18.361Z,19.59
2018-08-24T08:23:23.280Z,19.62
2018-08-24T08:26:28.235Z,19.58
2018-08-24T08:29:39.025Z,19.41
2018-08-24T08:32:44.168Z,19.33
2018-08-24T08:35:49.118Z,19.42
2018-08-24T08:38:54.048Z,19.02
2018-08-24T08:41:58.990Z,19.01
2018-08-24T08:45:03.976Z,18.83
2018-08-24T08:48:08.905Z,18.95
2018-08-24T08:51:13.838Z,19.01
2018-08-24T08:54:18.769Z,18.70
2018-08-24T08:57:23.699Z,18.60
2018-08-24T09:00:28.677Z,18.68
2018-08-24T09:03:33.612Z,18.83
2018-08-24T09:06:38.543Z,18.67
2018-08-24T09:09:43.474Z,18.60
2018-08-24T09:12:48.467Z,18.62
2018-08-24T09:15:53.344Z,18.28
2018-08-24T09:19:03.964Z,18.26
2018-08-24T09:22:14.741Z,18.40
2018-08-24T09:25:25.535Z,18.51
2018-08-24T09:28:37.073Z,18.47
2018-08-24T09:31:42.435Z,18.50
2018-08-24T09:34:47.392Z,18.46
2018-08-24T09:37:52.345Z,18.52
2018-08-24T09:40:57.292Z,18.50
2018-08-24T09:44:19.427Z,18.74
2018-08-24T09:47:30.150Z,18.81
2018-08-24T09:50:40.776Z,18.87
2018-08-24T09:53:51.464Z,18.85
2018-08-24T09:56:56.735Z,18.66
2018-08-24T10:00:02.046Z,18.74
2018-08-24T10:03:12.815Z,18.77
2018-08-24T10:06:23.673Z,18.96
2018-08-24T10:09:28.511Z,19.32
2018-08-24T10:12:36.488Z,19.49
2018-08-24T10:15:41.320Z,19.52
2018-08-24T10:18:46.303Z,19.76
2018-08-24T10:21:51.200Z,19.58
2018-08-24T10:24:56.104Z,19.66
2018-08-24T10:28:01.002Z,19.53
2018-08-24T10:31:05.893Z,19.65
2018-08-24T10:34:10.800Z,19.89
2018-08-24T10:37:15.702Z,20.12
2018-08-24T10:40:20.616Z,20.18
2018-08-24T10:43:25.527Z,20.28
2018-08-24T10:46:30.432Z,20.09
2018-08-24T10:49:35.353Z,19.99
2018-08-24T10:52:40.253Z,20.28
2018-08-24T10:55:45.232Z,20.63
2018-08-24T10:58:50.248Z,20.84
2018-08-24T11:01:55.198Z,20.94
2018-08-24T11:05:00.077Z,20.87
2018-08-24T11:08:05.040Z,21.06
2018-08-24T11:11:09.937Z,21.28
2018-08-24T11:14:15.016Z,20.67
2018-08-24T11:17:19.909Z,20.90
2018-08-24T11:20:24.823Z,20.85
2018-08-24T11:23:29.845Z,20.91
2018-08-24T11:26:34.761Z,21.06
2018-08-24T11:29:39.738Z,21.17
2018-08-24T11:32:44.660Z,21.36
2018-08-24T11:35:49.786Z,21.76
2018-08-24T11:38:54.823Z,21.87
2018-08-24T11:41:59.857Z,22.04
2018-08-24T11:45:05.396Z,22.11
2018-08-24T11:48:10.325Z,22.23
2018-08-24T11:51:15.356Z,22.36
2018-08-24T11:54:20.316Z,22.20
2018-08-24T11:57:25.477Z,22.43
2018-08-24T12:00:31.624Z,22.67
2018-08-24T12:03:36.639Z,22.81
2018-08-24T12:06:42.464Z,22.60
2018-08-24T12:09:47.426Z,22.66
2018-08-24T12:12:52.413Z,22.81
2018-08-24T12:15:57.379Z,22.72
2018-08-24T12:19:02.393Z,22.61
2018-08-24T12:22:07.529Z,22.87
2018-08-24T12:25:12.562Z,23.32
2018-08-24T12:28:17.544Z,23.24
2018-08-24T12:31:23.241Z,23.13
2018-08-24T12:34:28.206Z,22.69
2018-08-24T12:37:38.862Z,22.74
2018-08-24T12:40:44.021Z,22.92
2018-08-24T12:43:49.303Z,23.02
2018-08-24T12:46:54.269Z,23.16
2018-08-24T12:49:59.442Z,23.48
2018-08-24T12:53:04.603Z,23.50
2018-08-24T12:56:14.588Z,23.77
2018-08-24T12:59:19.552Z,23.77
2018-08-24T13:02:24.587Z,23.72
2018-08-24T13:05:29.563Z,23.60
2018-08-24T13:08:34.676Z,23.57
2018-08-24T13:11:39.627Z,23.62
2018-08-24T13:14:44.612Z,23.39
2018-08-24T13:17:49.706Z,23.17
2018-08-24T13:20:54.596Z,23.40
2018-08-24T13:23:59.596Z,23.73
2018-08-24T13:27:04.825Z,23.78
2018-08-24T13:30:09.835Z,23.78
2018-08-24T13:33:14.856Z,23.71
2018-08-24T13:36:20.028Z,23.89
2018-08-24T13:39:25.030Z,23.81
2018-08-24T13:42:30.023Z,23.75
2018-08-24T13:45:35.017Z,23.84
2018-08-24T13:48:40.049Z,23.84
2018-08-24T13:51:45.022Z,23.75
2018-08-24T13:54:50.164Z,23.51
2018-08-24T13:57:55.381Z,23.40
2018-08-24T14:01:00.721Z,23.57
2018-08-24T14:04:05.703Z,23.34
2018-08-24T14:07:10.633Z,23.00
2018-08-24T14:10:15.583Z,22.84
2018-08-24T14:13:20.580Z,22.60
2018-08-24T14:16:26.524Z,22.55
2018-08-24T14:19:31.610Z,22.62
2018-08-24T14:22:36.595Z,22.43
2018-08-24T14:25:41.683Z,22.39
2018-08-24T14:28:46.587Z,22.67
2018-08-24T14:31:51.620Z,22.79
2018-08-24T14:34:56.818Z,22.71
2018-08-24T14:38:02.132Z,22.66
2018-08-24T14:41:07.093Z,22.73
2018-08-24T14:44:12.267Z,22.73
2018-08-24T14:49:08.785Z,22.70
2018-08-24T14:52:15.195Z,22.77
2018-08-24T14:55:20.146Z,22.71
2018-08-24T14:58:25.090Z,22.93
2018-08-24T15:01:30.099Z,22.97
2018-08-24T15:04:35.143Z,22.79
2018-08-24T15:07:44.937Z,22.81
2018-08-24T15:10:50.075Z,22.83
2018-08-24T15:13:55.028Z,22.70
2018-08-24T15:17:00.029Z,22.68
2018-08-24T15:20:05.949Z,22.61
2018-08-24T15:23:11.057Z,22.71
2018-08-24T15:26:15.942Z,22.79
2018-08-24T15:29:21.000Z,22.71
2018-08-24T15:32:25.953Z,22.60
2018-08-24T15:35:30.971Z,22.63
2018-08-24T15:38:35.963Z,22.64
2018-08-24T15:41:41.672Z,22.71
2018-08-24T15:44:46.649Z,22.78
2018-08-24T15:47:51.711Z,22.61
2018-08-24T15:50:58.510Z,22.41
2018-08-24T15:54:03.540Z,22.47
2018-08-24T15:57:08.542Z,22.53
2018-08-24T16:00:13.622Z,22.29
2018-08-24T16:03:18.584Z,22.31
2018-08-24T16:06:23.530Z,22.19
2018-08-24T16:09:28.502Z,22.34
2018-08-24T16:12:33.506Z,22.51
2018-08-24T16:15:38.535Z,22.38
2018-08-24T16:18:43.513Z,22.35
2018-08-24T16:21:48.449Z,22.47
2018-08-24T16:24:53.464Z,22.40
2018-08-24T16:27:59.026Z,22.45
2018-08-24T16:31:04.020Z,22.51
2018-08-24T16:34:08.933Z,22.47
2018-08-24T16:37:13.868Z,22.57
2018-08-24T16:40:18.830Z,22.34
2018-08-24T16:43:23.756Z,22.11
2018-08-24T16:46:28.742Z,21.89
2018-08-24T16:49:33.812Z,21.86
2018-08-24T16:52:38.774Z,21.92
2018-08-24T16:55:43.709Z,21.82
2018-08-24T16:58:48.637Z,21.78
2018-08-24T17:01:53.621Z,21.70
2018-08-24T17:04:59.255Z,21.63
2018-08-24T17:08:04.672Z,21.46
2018-08-24T17:11:09.681Z,21.58
2018-08-24T17:14:14.679Z,21.59
2018-08-24T17:17:19.823Z,21.61
2018-08-24T17:20:24.817Z,21.43
2018-08-24T17:23:29.778Z,21.47
2018-08-24T17:26:34.767Z,21.47
2018-08-24T17:29:39.786Z,21.32
2018-08-24T17:32:44.791Z,21.19
2018-08-24T17:35:49.877Z,21.08
2018-08-24T17:38:54.926Z,20.79
2018-08-24T17:42:00.045Z,20.73
2018-08-24T17:45:05.277Z,20.71
2018-08-24T17:48:10.504Z,20.66
2018-08-24T17:51:15.525Z,20.71
2018-08-24T17:54:20.667Z,20.65
2018-08-24T17:57:25.709Z,20.67
2018-08-24T18:00:30.754Z,20.65
2018-08-24T18:03:35.736Z,20.49
2018-08-24T18:06:40.754Z,20.35
2018-08-24T18:09:45.770Z,20.33
2018-08-24T18:12:50.743Z,20.22
2018-08-24T18:15:55.717Z,20.24
2018-08-24T18:19:00.689Z,20.26
2018-08-24T18:22:05.720Z,20.23
2018-08-24T18:25:10.697Z,20.21
2018-08-24T18:28:15.677Z,20.01
2018-08-24T18:31:20.632Z,19.91
2018-08-24T18:34:25.582Z,19.81
2018-08-24T18:37:30.673Z,19.52
2018-08-24T18:40:35.625Z,19.47
2018-08-24T18:43:40.574Z,19.45
2018-08-24T18:46:45.534Z,19.46
2018-08-24T18:49:50.481Z,19.45
2018-08-24T18:52:55.427Z,19.45
2018-08-24T18:56:00.433Z,19.41
2018-08-24T18:59:05.406Z,19.33
2018-08-24T19:02:10.404Z,19.33
2018-08-24T19:05:15.409Z,19.10
2018-08-24T19:08:20.393Z,19.19
2018-08-24T19:11:31.139Z,19.21
2018-08-24T19:14:36.149Z,19.19
2018-08-24T19:18:48.013Z,19.08
2018-08-24T19:21:57.609Z,19.00
2018-08-24T19:25:02.625Z,19.03
2018-08-24T19:28:13.322Z,19.05
2018-08-24T19:31:18.365Z,18.93
2018-08-24T19:34:23.355Z,18.98
2018-08-24T19:37:28.385Z,19.01
2018-08-24T19:40:38.990Z,19.11
2018-08-24T19:43:44.101Z,19.10
2018-08-24T19:46:49.063Z,18.93
2018-08-24T19:49:54.065Z,18.96
2018-08-24T19:52:59.262Z,18.94
2018-08-24T19:56:04.675Z,18.91
2018-08-24T19:59:11.915Z,18.75
2018-08-24T20:02:17.005Z,18.76
2018-08-24T20:05:22.001Z,18.78
2018-08-24T20:08:32.865Z,18.67
2018-08-24T20:11:38.067Z,18.63
2018-08-24T20:14:48.748Z,18.63
2018-08-24T20:17:53.918Z,18.56
2018-08-24T20:20:58.993Z,18.55
2018-08-24T20:24:04.079Z,18.33
2018-08-24T20:27:09.098Z,18.21
2018-08-24T20:30:14.079Z,18.14
2018-08-24T20:33:19.052Z,18.20
2018-08-24T20:36:24.000Z,18.28
2018-08-24T20:39:29.248Z,18.29
2018-08-24T20:42:34.701Z,18.20
2018-08-24T20:45:39.816Z,18.23
2018-08-24T20:48:44.873Z,18.25
2018-08-24T20:51:49.842Z,18.09
2018-08-24T20:54:56.334Z,18.11
2018-08-24T20:58:01.777Z,18.05
2018-08-24T21:01:06.970Z,18.07
2018-08-24T21:04:11.978Z,18.10
2018-08-24T21:07:17.113Z,17.96
2018-08-24T21:10:22.102Z,17.95
2018-08-24T21:13:27.017Z,17.95
2018-08-24T21:16:32.829Z,17.94
2018-08-24T21:19:37.957Z,17.91
2018-08-24T21:22:43.048Z,17.85
2018-08-24T21:25:47.980Z,17.75
2018-08-24T21:28:52.910Z,17.85
2018-08-24T21:31:58.325Z,17.81
2018-08-24T21:35:03.341Z,17.90
2018-08-24T21:38:08.449Z,17.83
2018-08-24T21:41:13.377Z,17.82
2018-08-24T21:44:18.598Z,17.78
2018-08-24T21:47:24.012Z,17.72
2018-08-24T21:50:29.017Z,17.73
2018-08-24T21:53:34.248Z,17.76
2018-08-24T21:56:39.231Z,17.78
2018-08-24T22:03:24.954Z,17.73
2018-08-24T22:06:29.877Z,17.68
2018-08-24T22:09:34.908Z,17.52
2018-08-24T22:12:40.146Z,17.53
2018-08-24T22:15:45.066Z,17.43
2018-08-24T22:18:49.998Z,17.33
2018-08-24T22:21:55.181Z,17.22
2018-08-24T22:25:00.078Z,17.23
2018-08-24T22:28:05.388Z,17.21
2018-08-24T22:31:10.468Z,17.18
2018-08-24T22:34:15.812Z,17.03
2018-08-24T22:37:20.724Z,17.06
2018-08-24T22:40:25.649Z,16.96
2018-08-24T22:43:34.990Z,16.87
2018-08-24T22:46:39.898Z,16.97
2018-08-24T22:49:44.808Z,16.93
2018-08-24T22:52:49.737Z,16.94
2018-08-24T22:55:54.677Z,16.84
2018-08-24T22:58:59.591Z,16.65
2018-08-24T23:02:04.588Z,16.47
2018-08-24T23:05:09.557Z,16.38
2018-08-24T23:08:14.508Z,16.33
2018-08-24T23:11:19.470Z,16.40
2018-08-24T23:14:24.418Z,16.28
2018-08-24T23:17:29.368Z,16.30
2018-08-24T23:20:34.317Z,16.23
2018-08-24T23:23:39.252Z,16.34
2018-08-24T23:26:44.249Z,16.46
2018-08-24T23:29:49.195Z,16.38
2018-08-24T23:32:54.145Z,16.38
2018-08-24T23:35:59.126Z,16.40
2018-08-24T23:39:06.805Z,16.49
2018-08-24T23:42:11.736Z,16.44
2018-08-24T23:45:16.690Z,16.45
2018-08-24T23:48:21.642Z,16.57
2018-08-24T23:51:26.606Z,16.61
2018-08-24T23:54:31.565Z,16.69
2018-08-24T23:57:36.517Z,16.55
